createdAt,value
2017-07-29T00:01:17.199Z,0
2017-07-29T00:02:39.027Z,0
2017-07-29T00:04:01.189Z,0
2017-07-29T00:05:23.912Z,0
2017-07-29T00:06:45.864Z,0
2017-07-29T00:08:08.126Z,0
2017-07-29T00:09:29.982Z,0
2017-07-29T00:10:52.766Z,0
2017-07-29T00:12:14.596Z,0
2017-07-29T00:13:36.218Z,0
2017-07-29T00:14:58.708Z,0
2017-07-29T00:16:20.803Z,0
2017-07-29T00:17:42.976Z,0
2017-07-29T00:19:05.113Z,0
2017-07-29T00:20:27.623Z,0
2017-07-29T00:21:50.355Z,0
2017-07-29T00:23:12.196Z,0
2017-07-29T00:24:34.376Z,0
2017-07-29T00:25:56.655Z,0
2017-07-29T00:27:18.796Z,0
2017-07-29T00:28:40.978Z,0
2017-07-29T00:30:03.452Z,0
2017-07-29T00:31:25.281Z,0
2017-07-29T00:32:47.381Z,0
2017-07-29T00:34:09.276Z,0
2017-07-29T00:35:31.456Z,0
2017-07-29T00:36:53.615Z,0
2017-07-29T00:38:16.073Z,0
2017-07-29T00:39:38.303Z,0
2017-07-29T00:41:00.273Z,0
2017-07-29T00:42:22.426Z,0
2017-07-29T00:43:44.535Z,0
2017-07-29T00:45:07.013Z,0
2017-07-29T00:46:29.477Z,0
2017-07-29T00:47:51.655Z,0
2017-07-29T00:49:13.783Z,0
2017-07-29T00:50:35.927Z,0
2017-07-29T00:51:58.396Z,0
2017-07-29T00:53:20.545Z,0
2017-07-29T00:54:43.044Z,0
2017-07-29T00:56:04.600Z,0
2017-07-29T00:57:27.085Z,0
2017-07-29T00:58:49.074Z,0
2017-07-29T01:00:11.186Z,0
2017-07-29T01:01:32.765Z,0
2017-07-29T01:02:54.056Z,0
2017-07-29T01:04:16.238Z,0
2017-07-29T01:05:38.396Z,0
2017-07-29T01:06:59.608Z,0
2017-07-29T01:08:21.436Z,0
2017-07-29T01:09:42.655Z,0
2017-07-29T01:11:05.526Z,0
2017-07-29T01:12:27.665Z,0
2017-07-29T01:13:49.535Z,0
2017-07-29T01:15:11.789Z,0
2017-07-29T01:16:33.867Z,0
2017-07-29T01:17:56.328Z,0
2017-07-29T01:19:18.882Z,0
2017-07-29T01:20:40.546Z,0
2017-07-29T01:22:03.246Z,0
2017-07-29T01:23:25.386Z,0
2017-07-29T01:24:46.915Z,0
2017-07-29T01:26:08.528Z,0
2017-07-29T01:27:30.145Z,0
2017-07-29T01:28:52.305Z,0
2017-07-29T01:30:13.827Z,0
2017-07-29T01:31:35.669Z,0
2017-07-29T01:32:58.066Z,0
2017-07-29T01:34:19.258Z,0
2017-07-29T01:35:41.433Z,0
2017-07-29T01:37:02.956Z,0
2017-07-29T01:38:24.750Z,0
2017-07-29T01:39:46.926Z,0
2017-07-29T01:41:08.764Z,0
2017-07-29T01:42:30.396Z,0
2017-07-29T01:43:52.916Z,0
2017-07-29T01:45:13.796Z,0
2017-07-29T01:46:36.276Z,0
2017-07-29T01:47:58.122Z,0
2017-07-29T01:49:20.398Z,0
2017-07-29T01:50:42.958Z,0
2017-07-29T01:52:05.425Z,0
2017-07-29T01:53:26.926Z,0
2017-07-29T01:54:49.425Z,0
2017-07-29T01:56:11.996Z,0
2017-07-29T01:57:33.828Z,0
2017-07-29T01:58:56.069Z,0
2017-07-29T02:00:18.857Z,0
2017-07-29T02:01:41.013Z,0
2017-07-29T02:03:02.537Z,0
2017-07-29T02:04:24.357Z,0
2017-07-29T02:05:46.806Z,0
2017-07-29T02:07:09.374Z,0
2017-07-29T02:08:31.213Z,0
2017-07-29T02:09:52.728Z,0
2017-07-29T02:11:14.806Z,0
2017-07-29T02:12:36.956Z,0
2017-07-29T02:13:59.136Z,0
2017-07-29T02:15:21.302Z,0
2017-07-29T02:16:43.776Z,0
2017-07-29T02:18:05.283Z,0
2017-07-29T02:19:27.735Z,0
2017-07-29T02:20:50.196Z,0
2017-07-29T02:22:12.805Z,0
2017-07-29T02:23:34.946Z,0
2017-07-29T02:24:57.100Z,0
2017-07-29T02:26:18.936Z,0
2017-07-29T02:27:41.069Z,0
2017-07-29T02:29:03.400Z,0
2017-07-29T02:30:25.878Z,0
2017-07-29T02:31:47.709Z,0
2017-07-29T02:33:10.156Z,0
2017-07-29T02:34:32.015Z,0
2017-07-29T02:35:54.166Z,0
2017-07-29T02:37:16.007Z,0
2017-07-29T02:38:38.616Z,0
2017-07-29T02:40:00.477Z,0
2017-07-29T02:41:22.745Z,0
2017-07-29T02:42:44.276Z,0
2017-07-29T02:44:06.466Z,0
2017-07-29T02:45:28.354Z,0
2017-07-29T02:46:50.634Z,0
2017-07-29T02:48:12.157Z,0
2017-07-29T02:49:34.909Z,0
2017-07-29T02:50:57.080Z,0
2017-07-29T02:52:18.598Z,0
2017-07-29T02:53:40.847Z,0
2017-07-29T02:55:02.748Z,0
2017-07-29T02:56:24.636Z,0
2017-07-29T02:57:46.807Z,0
2017-07-29T02:59:08.963Z,0
2017-07-29T03:00:30.746Z,0
2017-07-29T03:01:52.647Z,0
2017-07-29T03:03:14.585Z,0
2017-07-29T03:04:36.738Z,0
2017-07-29T03:05:59.127Z,0
2017-07-29T03:07:21.585Z,0
2017-07-29T03:08:43.746Z,0
2017-07-29T03:10:06.029Z,0
2017-07-29T03:11:28.618Z,0
2017-07-29T03:12:50.448Z,0
2017-07-29T03:14:12.598Z,0
2017-07-29T03:15:34.747Z,0
2017-07-29T03:16:56.884Z,0
2017-07-29T03:18:19.019Z,0
2017-07-29T03:19:40.881Z,0
2017-07-29T03:21:02.729Z,0
2017-07-29T03:22:24.504Z,0
2017-07-29T03:23:46.946Z,0
2017-07-29T03:25:08.777Z,0
2017-07-29T03:26:30.608Z,0
2017-07-29T03:27:52.421Z,0
2017-07-29T03:29:14.588Z,0
2017-07-29T03:30:36.741Z,0
2017-07-29T03:31:58.671Z,0
2017-07-29T03:33:20.486Z,0
2017-07-29T03:34:42.335Z,0
2017-07-29T03:36:04.160Z,0
2017-07-29T03:37:26.198Z,0
2017-07-29T03:38:48.633Z,0
2017-07-29T03:40:11.116Z,0
2017-07-29T03:41:33.277Z,0
2017-07-29T03:42:55.838Z,0
2017-07-29T03:44:18.337Z,0
2017-07-29T03:45:40.796Z,0
2017-07-29T03:47:02.635Z,0
2017-07-29T03:48:23.527Z,0
2017-07-29T03:49:46.246Z,0
2017-07-29T03:51:08.723Z,0
2017-07-29T03:52:30.537Z,0
2017-07-29T03:53:52.370Z,0
2017-07-29T03:55:15.009Z,0
2017-07-29T03:56:37.488Z,0
2017-07-29T03:57:59.685Z,0
2017-07-29T03:59:21.636Z,0
2017-07-29T04:00:44.096Z,0
2017-07-29T04:02:05.947Z,0
2017-07-29T04:03:28.106Z,0
2017-07-29T04:04:50.261Z,5
2017-07-29T04:06:12.418Z,5
2017-07-29T04:07:33.917Z,5
2017-07-29T04:08:56.407Z,5
2017-07-29T04:10:18.942Z,5
2017-07-29T04:11:40.767Z,5
2017-07-29T04:13:03.138Z,5
2017-07-29T04:14:25.297Z,5
2017-07-29T04:15:47.456Z,5
2017-07-29T04:17:10.269Z,5
2017-07-29T04:18:32.792Z,10
2017-07-29T04:19:54.621Z,10
2017-07-29T04:21:16.467Z,10
2017-07-29T04:22:38.657Z,10
2017-07-29T04:24:00.579Z,10
2017-07-29T04:25:22.487Z,5
2017-07-29T04:26:44.337Z,5
2017-07-29T04:28:06.400Z,10
2017-07-29T04:29:28.281Z,10
2017-07-29T04:30:50.436Z,10
2017-07-29T04:32:12.631Z,10
2017-07-29T04:33:34.757Z,10
2017-07-29T04:34:57.219Z,10
2017-07-29T04:36:19.686Z,10
2017-07-29T04:37:41.543Z,15
2017-07-29T04:39:03.952Z,15
2017-07-29T04:40:25.815Z,15
2017-07-29T04:41:47.959Z,20
2017-07-29T04:43:09.808Z,25
2017-07-29T04:44:32.322Z,25
2017-07-29T04:45:54.176Z,20
2017-07-29T04:47:15.684Z,15
2017-07-29T04:48:37.502Z,15
2017-07-29T04:49:59.581Z,15
2017-07-29T04:51:21.547Z,15
2017-07-29T04:52:43.587Z,15
2017-07-29T04:54:05.737Z,20
2017-07-29T04:55:27.567Z,20
2017-07-29T04:56:50.143Z,25
2017-07-29T04:58:12.325Z,30
2017-07-29T04:59:34.246Z,30
2017-07-29T05:00:56.644Z,30
2017-07-29T05:02:18.486Z,30
2017-07-29T05:03:40.056Z,35
2017-07-29T05:05:01.917Z,35
2017-07-29T05:06:24.103Z,30
2017-07-29T05:07:45.918Z,30
2017-07-29T05:09:08.405Z,30
2017-07-29T05:10:29.604Z,30
2017-07-29T05:11:51.444Z,30
2017-07-29T05:13:13.283Z,30
2017-07-29T05:14:35.116Z,30
2017-07-29T05:15:57.272Z,25
2017-07-29T05:17:19.377Z,25
2017-07-29T05:18:40.970Z,25
2017-07-29T05:20:03.152Z,25
2017-07-29T05:21:24.667Z,20
2017-07-29T05:22:47.457Z,20
2017-07-29T05:24:09.647Z,20
2017-07-29T05:25:31.655Z,20
2017-07-29T05:26:53.824Z,20
2017-07-29T05:28:15.706Z,25
2017-07-29T05:29:38.167Z,25
2017-07-29T05:31:00.724Z,25
2017-07-29T05:32:22.875Z,25
2017-07-29T05:33:45.080Z,30
2017-07-29T05:35:07.547Z,25
2017-07-29T05:36:29.727Z,30
2017-07-29T05:37:52.025Z,35
2017-07-29T05:39:14.577Z,40
2017-07-29T05:40:36.517Z,45
2017-07-29T05:41:58.046Z,50
2017-07-29T05:43:19.895Z,55
2017-07-29T05:44:41.786Z,55
2017-07-29T05:46:03.938Z,50
2017-07-29T05:47:25.461Z,55
2017-07-29T05:48:47.356Z,50
2017-07-29T05:50:09.565Z,45
2017-07-29T05:51:32.073Z,40
2017-07-29T05:52:53.636Z,40
2017-07-29T05:54:15.806Z,35
2017-07-29T05:55:37.988Z,40
2017-07-29T05:56:59.825Z,45
2017-07-29T05:58:22.027Z,45
2017-07-29T05:59:44.197Z,50
2017-07-29T06:01:06.610Z,45
2017-07-29T06:02:28.889Z,50
2017-07-29T06:03:50.746Z,50
2017-07-29T06:05:12.929Z,55
2017-07-29T06:06:35.379Z,60
2017-07-29T06:07:57.857Z,55
2017-07-29T06:09:20.006Z,60
2017-07-29T06:10:41.906Z,60
2017-07-29T06:12:04.065Z,55
2017-07-29T06:13:26.286Z,50
2017-07-29T06:14:48.443Z,60
2017-07-29T06:16:09.993Z,60
2017-07-29T06:17:32.438Z,65
2017-07-29T06:18:54.006Z,70
2017-07-29T06:20:15.836Z,85
2017-07-29T06:21:37.045Z,100
2017-07-29T06:22:59.338Z,100
2017-07-29T06:24:21.194Z,110
2017-07-29T06:25:43.033Z,105
2017-07-29T06:27:04.249Z,105
2017-07-29T06:28:26.706Z,105
2017-07-29T06:29:48.656Z,105
2017-07-29T06:31:10.198Z,105
2017-07-29T06:32:31.835Z,100
2017-07-29T06:33:54.595Z,100
2017-07-29T06:35:16.449Z,105
2017-07-29T06:36:38.595Z,115
2017-07-29T06:38:00.756Z,125
2017-07-29T06:39:22.844Z,135
2017-07-29T06:40:44.678Z,135
2017-07-29T06:42:06.536Z,135
2017-07-29T06:43:28.685Z,140
2017-07-29T06:44:50.551Z,145
2017-07-29T06:46:12.716Z,160
2017-07-29T06:47:33.924Z,165
2017-07-29T06:48:55.764Z,170
2017-07-29T06:50:17.589Z,145
2017-07-29T06:51:39.755Z,145
2017-07-29T06:53:01.908Z,140
2017-07-29T06:54:24.054Z,145
2017-07-29T06:55:46.348Z,150
2017-07-29T06:57:08.673Z,150
2017-07-29T06:58:30.570Z,145
2017-07-29T06:59:52.427Z,130
2017-07-29T07:01:14.687Z,120
2017-07-29T07:02:36.607Z,120
2017-07-29T07:03:59.099Z,115
2017-07-29T07:05:21.257Z,110
2017-07-29T07:06:43.397Z,110
2017-07-29T07:08:05.279Z,120
2017-07-29T07:09:27.212Z,120
2017-07-29T07:10:48.738Z,105
2017-07-29T07:12:10.927Z,100
2017-07-29T07:13:33.089Z,105
2017-07-29T07:14:55.556Z,125
2017-07-29T07:16:17.727Z,140
2017-07-29T07:17:40.206Z,165
2017-07-29T07:19:01.867Z,160
2017-07-29T07:20:23.745Z,145
2017-07-29T07:21:46.436Z,135
2017-07-29T07:23:09.335Z,140
2017-07-29T07:24:31.891Z,140
2017-07-29T07:25:54.099Z,160
2017-07-29T07:27:15.946Z,160
2017-07-29T07:28:38.506Z,160
2017-07-29T07:29:59.410Z,135
2017-07-29T07:31:21.568Z,115
2017-07-29T07:32:43.747Z,110
2017-07-29T07:34:06.207Z,100
2017-07-29T07:35:27.837Z,105
2017-07-29T07:36:49.057Z,115
2017-07-29T07:38:10.894Z,150
2017-07-29T07:39:33.304Z,155
2017-07-29T07:40:54.186Z,155
2017-07-29T07:42:16.386Z,160
2017-07-29T07:43:38.559Z,170
2017-07-29T07:45:01.054Z,205
2017-07-29T07:46:23.227Z,240
2017-07-29T07:47:44.758Z,230
2017-07-29T07:49:06.680Z,200
2017-07-29T07:50:29.093Z,210
2017-07-29T07:51:51.246Z,215
2017-07-29T07:53:13.477Z,210
2017-07-29T07:54:35.310Z,210
2017-07-29T07:55:57.778Z,195
2017-07-29T07:57:19.631Z,185
2017-07-29T07:58:41.626Z,160
2017-07-29T08:00:03.557Z,160
2017-07-29T08:01:26.116Z,145
2017-07-29T08:02:48.293Z,130
2017-07-29T08:04:10.152Z,150
2017-07-29T08:05:32.736Z,175
2017-07-29T08:06:55.186Z,165
2017-07-29T08:08:17.145Z,150
2017-07-29T08:09:38.348Z,145
2017-07-29T08:11:00.507Z,145
2017-07-29T08:12:22.744Z,155
2017-07-29T08:13:44.646Z,165
2017-07-29T08:15:06.490Z,190
2017-07-29T08:16:28.963Z,190
2017-07-29T08:17:51.117Z,220
2017-07-29T08:19:13.268Z,285
2017-07-29T08:20:34.803Z,310
2017-07-29T08:21:57.339Z,280
2017-07-29T08:23:19.807Z,275
2017-07-29T08:24:42.292Z,255
2017-07-29T08:26:04.794Z,190
2017-07-29T08:27:26.976Z,190
2017-07-29T08:28:49.437Z,240
2017-07-29T08:30:11.590Z,230
2017-07-29T08:31:33.896Z,260
2017-07-29T08:32:56.086Z,260
2017-07-29T08:34:18.567Z,280
2017-07-29T08:35:40.746Z,285
2017-07-29T08:37:03.817Z,310
2017-07-29T08:38:25.967Z,315
2017-07-29T08:39:48.440Z,305
2017-07-29T08:41:10.690Z,275
2017-07-29T08:42:32.848Z,285
2017-07-29T08:43:55.867Z,295
2017-07-29T08:45:18.653Z,310
2017-07-29T08:46:40.511Z,335
2017-07-29T08:48:02.068Z,330
2017-07-29T08:49:24.293Z,330
2017-07-29T08:50:46.437Z,335
2017-07-29T08:52:08.309Z,340
2017-07-29T08:53:30.832Z,350
2017-07-29T08:54:53.118Z,320
2017-07-29T08:56:15.947Z,285
2017-07-29T08:57:37.488Z,275
2017-07-29T08:58:59.975Z,265
2017-07-29T09:00:21.808Z,285
2017-07-29T09:01:44.596Z,295
2017-07-29T09:03:06.778Z,260
2017-07-29T09:04:28.307Z,245
2017-07-29T09:05:50.487Z,245
2017-07-29T09:07:13.268Z,255
2017-07-29T09:08:35.921Z,260
2017-07-29T09:09:57.556Z,260
2017-07-29T09:11:19.706Z,265
2017-07-29T09:12:42.276Z,265
2017-07-29T09:14:04.627Z,245
2017-07-29T09:15:27.225Z,245
2017-07-29T09:16:49.397Z,270
2017-07-29T09:18:11.288Z,275
2017-07-29T09:19:33.798Z,265
2017-07-29T09:20:55.987Z,255
2017-07-29T09:22:18.214Z,245
2017-07-29T09:23:41.045Z,245
2017-07-29T09:25:03.000Z,220
2017-07-29T09:26:25.176Z,205
2017-07-29T09:27:47.078Z,225
2017-07-29T09:29:09.510Z,250
2017-07-29T09:30:31.703Z,265
2017-07-29T09:31:53.242Z,295
2017-07-29T09:33:15.102Z,335
2017-07-29T09:34:37.546Z,360
2017-07-29T09:35:59.392Z,340
2017-07-29T09:37:21.884Z,305
2017-07-29T09:38:44.066Z,340
2017-07-29T09:40:06.872Z,340
2017-07-29T09:41:29.137Z,290
2017-07-29T09:42:51.340Z,305
2017-07-29T09:44:13.525Z,305
2017-07-29T09:45:35.998Z,295
2017-07-29T09:46:57.957Z,320
2017-07-29T09:48:19.847Z,320
2017-07-29T09:49:42.134Z,365
2017-07-29T09:51:04.717Z,390
2017-07-29T09:52:27.207Z,365
2017-07-29T09:53:49.159Z,300
2017-07-29T09:55:11.415Z,330
2017-07-29T09:56:33.936Z,355
2017-07-29T09:57:56.416Z,325
2017-07-29T09:59:18.605Z,330
2017-07-29T10:00:41.126Z,395
2017-07-29T10:02:03.200Z,400
2017-07-29T10:03:25.166Z,310
2017-07-29T10:04:47.390Z,305
2017-07-29T10:06:09.878Z,310
2017-07-29T10:07:32.501Z,295
2017-07-29T10:08:54.974Z,255
2017-07-29T10:10:16.834Z,255
2017-07-29T10:11:38.761Z,270
2017-07-29T10:13:01.535Z,280
2017-07-29T10:14:23.720Z,380
2017-07-29T10:15:46.279Z,390
2017-07-29T10:17:07.847Z,435
2017-07-29T10:18:30.076Z,485
2017-07-29T10:19:51.926Z,455
2017-07-29T10:21:13.756Z,420
2017-07-29T10:22:36.247Z,420
2017-07-29T10:23:58.598Z,355
2017-07-29T10:25:20.806Z,290
2017-07-29T10:26:42.374Z,290
2017-07-29T10:28:04.364Z,325
2017-07-29T10:29:26.536Z,360
2017-07-29T10:30:48.716Z,370
2017-07-29T10:32:11.211Z,340
2017-07-29T10:33:33.513Z,320
2017-07-29T10:34:56.068Z,295
2017-07-29T10:36:18.220Z,280
2017-07-29T10:37:40.379Z,285
2017-07-29T10:39:02.536Z,295
2017-07-29T10:40:24.363Z,305
2017-07-29T10:41:46.644Z,290
2017-07-29T10:43:09.111Z,280
2017-07-29T10:44:30.660Z,255
2017-07-29T10:45:53.146Z,285
2017-07-29T10:47:15.113Z,265
2017-07-29T10:48:37.672Z,255
2017-07-29T10:49:59.848Z,240
2017-07-29T10:51:22.328Z,240
2017-07-29T10:52:44.806Z,250
2017-07-29T10:54:07.366Z,295
2017-07-29T10:55:29.933Z,255
2017-07-29T10:56:52.393Z,255
2017-07-29T10:58:14.871Z,230
2017-07-29T10:59:37.347Z,210
2017-07-29T11:00:59.554Z,215
2017-07-29T11:02:21.736Z,220
2017-07-29T11:03:43.973Z,235
2017-07-29T11:05:05.559Z,255
2017-07-29T11:06:27.760Z,270
2017-07-29T11:07:49.998Z,335
2017-07-29T11:09:12.218Z,390
2017-07-29T11:10:34.688Z,395
2017-07-29T11:11:57.179Z,425
2017-07-29T11:13:19.359Z,405
2017-07-29T11:14:41.625Z,455
2017-07-29T11:16:04.136Z,380
2017-07-29T11:17:26.000Z,400
2017-07-29T11:18:48.467Z,410
2017-07-29T11:20:11.155Z,310
2017-07-29T11:21:33.328Z,205
2017-07-29T11:22:55.829Z,275
2017-07-29T11:24:18.004Z,225
2017-07-29T11:25:40.204Z,225
2017-07-29T11:27:02.086Z,210
2017-07-29T11:28:24.047Z,205
2017-07-29T11:29:46.204Z,255
2017-07-29T11:31:08.570Z,265
2017-07-29T11:32:31.087Z,245
2017-07-29T11:33:52.942Z,240
2017-07-29T11:35:15.094Z,215
2017-07-29T11:36:36.956Z,220
2017-07-29T11:37:59.209Z,205
2017-07-29T11:39:21.387Z,205
2017-07-29T11:40:43.884Z,175
2017-07-29T11:42:06.387Z,185
2017-07-29T11:43:29.006Z,265
2017-07-29T11:44:51.517Z,190
2017-07-29T11:46:14.149Z,180
2017-07-29T11:47:36.486Z,170
2017-07-29T11:48:58.956Z,200
2017-07-29T11:50:20.484Z,240
2017-07-29T11:51:42.961Z,210
2017-07-29T11:53:05.127Z,210
2017-07-29T11:54:27.695Z,275
2017-07-29T11:55:50.213Z,280
2017-07-29T11:57:12.686Z,250
2017-07-29T11:58:34.998Z,305
2017-07-29T11:59:57.189Z,285
2017-07-29T12:01:19.717Z,265
2017-07-29T12:02:42.516Z,255
2017-07-29T12:04:04.787Z,170
2017-07-29T12:05:26.973Z,140
2017-07-29T12:06:49.206Z,160
2017-07-29T12:08:11.736Z,210
2017-07-29T12:09:33.585Z,205
2017-07-29T12:10:56.094Z,185
2017-07-29T12:12:17.328Z,145
2017-07-29T12:13:40.057Z,130
2017-07-29T12:15:02.545Z,90
2017-07-29T12:16:24.846Z,85
2017-07-29T12:17:46.705Z,135
2017-07-29T12:19:09.126Z,150
2017-07-29T12:20:31.625Z,110
2017-07-29T12:21:53.840Z,95
2017-07-29T12:23:15.727Z,120
2017-07-29T12:24:38.244Z,150
2017-07-29T12:26:00.240Z,175
2017-07-29T12:27:22.446Z,165
2017-07-29T12:28:44.641Z,125
2017-07-29T12:30:07.247Z,120
2017-07-29T12:31:29.749Z,145
2017-07-29T12:32:52.397Z,125
2017-07-29T12:34:14.552Z,115
2017-07-29T12:35:36.754Z,100
2017-07-29T12:36:59.295Z,105
2017-07-29T12:38:21.606Z,185
2017-07-29T12:39:43.683Z,250
2017-07-29T12:41:06.445Z,220
2017-07-29T12:42:28.915Z,210
2017-07-29T12:43:50.852Z,280
2017-07-29T12:45:13.088Z,250
2017-07-29T12:46:35.891Z,195
2017-07-29T12:47:58.386Z,165
2017-07-29T12:49:20.919Z,195
2017-07-29T12:50:43.176Z,330
2017-07-29T12:52:05.737Z,505
2017-07-29T12:53:27.919Z,515
2017-07-29T12:54:50.098Z,345
2017-07-29T12:56:12.337Z,295
2017-07-29T12:57:34.495Z,270
2017-07-29T12:58:57.081Z,265
2017-07-29T13:00:19.562Z,255
2017-07-29T13:01:41.437Z,215
2017-07-29T13:03:04.605Z,185
2017-07-29T13:04:26.490Z,205
2017-07-29T13:05:48.355Z,230
2017-07-29T13:07:10.583Z,250
2017-07-29T13:08:32.898Z,280
2017-07-29T13:09:55.066Z,255
2017-07-29T13:11:17.239Z,275
2017-07-29T13:12:39.428Z,310
2017-07-29T13:14:02.060Z,455
2017-07-29T13:15:24.226Z,565
2017-07-29T13:16:46.787Z,570
2017-07-29T13:18:09.305Z,535
2017-07-29T13:19:31.417Z,545
2017-07-29T13:20:53.292Z,510
2017-07-29T13:22:15.898Z,465
2017-07-29T13:23:37.891Z,435
2017-07-29T13:25:00.381Z,345
2017-07-29T13:26:22.803Z,315
2017-07-29T13:27:44.445Z,335
2017-07-29T13:29:06.636Z,435
2017-07-29T13:30:29.115Z,545
2017-07-29T13:31:51.314Z,470
2017-07-29T13:33:13.950Z,430
2017-07-29T13:34:36.166Z,380
2017-07-29T13:35:58.909Z,365
2017-07-29T13:37:21.461Z,385
2017-07-29T13:38:43.763Z,460
2017-07-29T13:40:05.710Z,470
2017-07-29T13:41:28.205Z,500
2017-07-29T13:42:50.426Z,450
2017-07-29T13:44:12.603Z,385
2017-07-29T13:45:35.132Z,400
2017-07-29T13:46:57.628Z,445
2017-07-29T13:48:20.135Z,435
2017-07-29T13:49:42.557Z,440
2017-07-29T13:51:04.750Z,420
2017-07-29T13:52:26.937Z,425
2017-07-29T13:53:48.827Z,415
2017-07-29T13:55:11.335Z,420
2017-07-29T13:56:33.195Z,400
2017-07-29T13:57:55.376Z,440
2017-07-29T13:59:17.534Z,445
2017-07-29T14:00:39.416Z,435
2017-07-29T14:02:01.615Z,425
2017-07-29T14:03:24.387Z,420
2017-07-29T14:04:46.975Z,405
2017-07-29T14:06:09.466Z,380
2017-07-29T14:07:31.656Z,380
2017-07-29T14:08:54.487Z,370
2017-07-29T14:10:16.963Z,365
2017-07-29T14:11:39.507Z,370
2017-07-29T14:13:02.102Z,355
2017-07-29T14:14:24.549Z,345
2017-07-29T14:15:46.727Z,360
2017-07-29T14:17:09.268Z,390
2017-07-29T14:18:31.786Z,420
2017-07-29T14:19:54.337Z,440
2017-07-29T14:21:16.738Z,430
2017-07-29T14:22:40.069Z,440
2017-07-29T14:24:02.256Z,440
2017-07-29T14:25:25.166Z,450
2017-07-29T14:26:46.686Z,460
2017-07-29T14:28:08.550Z,460
2017-07-29T14:29:30.417Z,440
2017-07-29T14:30:53.187Z,440
2017-07-29T14:32:15.356Z,430
2017-07-29T14:33:37.077Z,410
2017-07-29T14:34:59.599Z,400
2017-07-29T14:36:22.086Z,380
2017-07-29T14:37:44.617Z,385
2017-07-29T14:39:07.128Z,390
2017-07-29T14:40:29.378Z,390
2017-07-29T14:41:52.120Z,410
2017-07-29T14:43:14.626Z,405
2017-07-29T14:44:37.169Z,390
2017-07-29T14:45:59.371Z,385
2017-07-29T14:47:22.198Z,390
2017-07-29T14:48:44.697Z,380
2017-07-29T14:50:06.964Z,380
2017-07-29T14:51:29.464Z,390
2017-07-29T14:52:52.238Z,390
2017-07-29T14:54:13.887Z,390
2017-07-29T14:55:36.398Z,400
2017-07-29T14:56:58.369Z,385
2017-07-29T14:58:21.100Z,380
2017-07-29T14:59:43.258Z,380
2017-07-29T15:01:05.517Z,385
2017-07-29T15:02:27.068Z,330
2017-07-29T15:03:49.521Z,315
2017-07-29T15:05:11.706Z,365
2017-07-29T15:06:33.886Z,375
2017-07-29T15:07:55.868Z,330
2017-07-29T15:09:18.301Z,345
2017-07-29T15:10:40.809Z,360
2017-07-29T15:12:02.998Z,385
2017-07-29T15:13:25.517Z,375
2017-07-29T15:14:47.949Z,320
2017-07-29T15:16:10.588Z,305
2017-07-29T15:17:33.099Z,350
2017-07-29T15:18:55.434Z,320
2017-07-29T15:20:17.626Z,255
2017-07-29T15:21:39.868Z,225
2017-07-29T15:23:02.086Z,220
2017-07-29T15:24:24.277Z,195
2017-07-29T15:25:46.139Z,195
2017-07-29T15:27:08.324Z,190
2017-07-29T15:28:30.807Z,180
2017-07-29T15:29:53.011Z,190
2017-07-29T15:31:15.977Z,190
2017-07-29T15:32:38.467Z,175
2017-07-29T15:34:00.356Z,185
2017-07-29T15:35:22.348Z,200
2017-07-29T15:36:45.200Z,210
2017-07-29T15:38:07.489Z,230
2017-07-29T15:39:29.783Z,230
2017-07-29T15:40:52.259Z,240
2017-07-29T15:42:14.865Z,270
2017-07-29T15:43:37.362Z,310
2017-07-29T15:44:59.583Z,285
2017-07-29T15:46:22.072Z,230
2017-07-29T15:47:44.278Z,190
2017-07-29T15:49:06.439Z,165
2017-07-29T15:50:28.624Z,125
2017-07-29T15:51:50.788Z,100
2017-07-29T15:53:13.413Z,105
2017-07-29T15:54:35.906Z,110
2017-07-29T15:55:57.488Z,105
2017-07-29T15:57:20.030Z,110
2017-07-29T15:58:42.789Z,140
2017-07-29T16:00:04.639Z,195
2017-07-29T16:01:27.140Z,260
2017-07-29T16:02:49.026Z,295
2017-07-29T16:04:11.809Z,290
2017-07-29T16:05:34.100Z,280
2017-07-29T16:06:56.628Z,270
2017-07-29T16:08:18.879Z,235
2017-07-29T16:09:40.992Z,205
2017-07-29T16:11:03.326Z,200
2017-07-29T16:12:25.528Z,190
2017-07-29T16:13:47.913Z,180
2017-07-29T16:15:10.462Z,155
2017-07-29T16:16:32.642Z,155
2017-07-29T16:17:54.938Z,165
2017-07-29T16:19:17.676Z,160
2017-07-29T16:20:40.323Z,135
2017-07-29T16:22:02.588Z,115
2017-07-29T16:23:25.102Z,105
2017-07-29T16:24:47.714Z,90
2017-07-29T16:26:09.555Z,85
2017-07-29T16:27:31.765Z,85
2017-07-29T16:28:55.213Z,95
2017-07-29T16:30:19.629Z,90
2017-07-29T16:31:44.513Z,90
2017-07-29T16:35:32.521Z,140
2017-07-29T16:37:01.683Z,150
2017-07-29T16:38:24.255Z,145
2017-07-29T16:39:48.737Z,110
2017-07-29T16:41:16.794Z,100
2017-07-29T16:42:39.983Z,95
2017-07-29T16:44:02.573Z,90
2017-07-29T16:45:24.832Z,90
2017-07-29T16:46:47.110Z,95
2017-07-29T16:48:09.880Z,105
2017-07-29T16:49:32.061Z,110
2017-07-29T16:50:54.303Z,110
2017-07-29T16:52:16.252Z,90
2017-07-29T16:53:38.824Z,90
2017-07-29T16:55:01.308Z,90
2017-07-29T16:56:23.945Z,90
2017-07-29T16:57:46.136Z,95
2017-07-29T16:59:08.957Z,100
2017-07-29T17:00:31.543Z,90
2017-07-29T17:01:53.765Z,70
2017-07-29T17:03:16.039Z,60
2017-07-29T17:04:38.514Z,55
2017-07-29T17:06:00.722Z,50
2017-07-29T17:07:22.897Z,50
2017-07-29T17:08:45.408Z,50
2017-07-29T17:10:08.179Z,50
2017-07-29T17:11:30.681Z,55
2017-07-29T17:12:53.149Z,60
2017-07-29T17:14:14.993Z,60
2017-07-29T17:15:37.147Z,60
2017-07-29T17:16:59.623Z,65
2017-07-29T17:18:21.910Z,70
2017-07-29T17:19:44.412Z,100
2017-07-29T17:21:06.822Z,100
2017-07-29T17:22:28.384Z,95
2017-07-29T17:23:50.225Z,85
2017-07-29T17:25:12.391Z,90
2017-07-29T17:26:42.371Z,100
2017-07-29T17:28:07.304Z,115
2017-07-29T17:29:29.634Z,120
2017-07-29T17:30:51.843Z,115
2017-07-29T17:32:15.915Z,105
2017-07-29T17:33:38.995Z,100
2017-07-29T17:35:02.970Z,95
2017-07-29T17:36:24.992Z,100
2017-07-29T17:37:47.516Z,90
2017-07-29T17:39:09.410Z,70
2017-07-29T17:40:31.259Z,65
2017-07-29T17:41:53.424Z,65
2017-07-29T17:43:16.188Z,65
2017-07-29T17:44:38.678Z,65
2017-07-29T17:46:00.671Z,70
2017-07-29T17:47:26.148Z,75
2017-07-29T17:48:48.646Z,75
2017-07-29T17:50:12.165Z,70
2017-07-29T17:51:34.175Z,75
2017-07-29T17:52:58.724Z,75
2017-07-29T17:54:25.536Z,85
2017-07-29T17:55:56.588Z,95
2017-07-29T17:57:19.891Z,95
2017-07-29T17:58:45.401Z,95
2017-07-29T18:00:09.085Z,90
2017-07-29T18:01:35.318Z,90
2017-07-29T18:03:02.971Z,85
2017-07-29T18:04:25.201Z,80
2017-07-29T18:05:48.113Z,80
2017-07-29T18:07:09.673Z,85
2017-07-29T18:08:31.921Z,85
2017-07-29T18:09:54.110Z,85
2017-07-29T18:11:16.673Z,80
2017-07-29T18:12:38.980Z,70
2017-07-29T18:14:01.532Z,65
2017-07-29T18:15:23.733Z,60
2017-07-29T18:16:46.213Z,60
2017-07-29T18:18:08.711Z,60
2017-07-29T18:19:30.910Z,60
2017-07-29T18:20:53.111Z,55
2017-07-29T18:22:15.573Z,50
2017-07-29T18:23:38.154Z,50
2017-07-29T18:25:00.340Z,50
2017-07-29T18:26:22.263Z,45
2017-07-29T18:27:45.073Z,45
2017-07-29T18:29:07.649Z,50
2017-07-29T18:30:29.952Z,45
2017-07-29T18:31:52.482Z,55
2017-07-29T18:33:14.978Z,55
2017-07-29T18:34:37.477Z,55
2017-07-29T18:35:59.691Z,45
2017-07-29T18:37:22.149Z,40
2017-07-29T18:38:44.615Z,35
2017-07-29T18:40:06.810Z,35
2017-07-29T18:41:28.686Z,30
2017-07-29T18:42:50.542Z,30
2017-07-29T18:44:13.400Z,30
2017-07-29T18:45:35.622Z,30
2017-07-29T18:46:58.190Z,30
2017-07-29T18:48:20.362Z,30
2017-07-29T18:49:42.838Z,25
2017-07-29T18:51:05.059Z,25
2017-07-29T18:52:27.271Z,25
2017-07-29T18:53:49.745Z,20
2017-07-29T18:55:12.634Z,20
2017-07-29T18:56:35.121Z,20
2017-07-29T18:57:57.682Z,15
2017-07-29T18:59:20.052Z,15
2017-07-29T19:00:42.180Z,15
2017-07-29T19:02:04.475Z,15
2017-07-29T19:03:26.989Z,10
2017-07-29T19:04:49.355Z,10
2017-07-29T19:06:11.874Z,10
2017-07-29T19:07:34.046Z,10
2017-07-29T19:08:56.693Z,10
2017-07-29T19:10:19.220Z,5
2017-07-29T19:11:41.958Z,5
2017-07-29T19:13:04.692Z,5
2017-07-29T19:14:26.573Z,5
2017-07-29T19:15:49.225Z,5
2017-07-29T19:17:11.655Z,5
2017-07-29T19:18:34.234Z,5
2017-07-29T19:19:56.755Z,5
2017-07-29T19:21:19.258Z,5
2017-07-29T19:22:42.039Z,5
2017-07-29T19:24:04.258Z,0